OINZ

Details ICAO OINZ (SRY)
Name SARI DASHT E NAZ
Region Iran
Timezone Asia/Tehran (UTC+3.5)
Plans Departing 12
Arriving 14
Stats Elevation 35 ft / 11 m (AMSL)
Location 36.644600° 53.188683°
Runways 1
Magnetic Variation 4.884° E
Sunrise 2017-12-12 03:31:31 UTC / 2017-12-12 07:01:31 Local
Sunset 2017-12-12 13:13:10 UTC / 2017-12-12 16:43:10 Local
Advertisement - Login to hide

Runways

ID Width Length Bearing (true) Bearing (mag) Surface Threshold Offset Overrun Length
16 148 ft / 45 m 8,694 ft / 2,650 m 160.89° 156.01° Asphalt 0 ft / 0 m 175 ft / 53 m
34 148 ft / 45 m 8,694 ft / 2,650 m 340.89° 336.01° Asphalt 1,687 ft / 514 m 159 ft / 48 m

Map

Weather


0- 5 10 15 20 25 30 35+ Temperature / ° C

Clouds and Precipitation
Forecast for 2017-12-12 00:00 UTC. Updated 2 hours ago

Ground ~20,000 ft ~40,000 ft Winds

METAR

OINZ 112300Z 20006KT CAVOK 09/06 Q1028

TAF

Not found

Frequencies

Recorded 126.85 MHz DASHT E NAZ INFO
Tower 121.70 MHz TWR
Tower 119.60 MHz TWR
Tower 118.45 MHz TWR
Warning: Do not use this data for real-world aviation or navigation. No guarantee of current accuracy is given.